WetterOnline ( http://www.wetteronline.de )

Wetter aktuell Heiligenstadt

Aktuelles Wetter: Leinefelde (356m)

6-stündlich | Neueste Meldungen
Ortszeit Temperatur Wetter
Mi, 24.10. 2:00 10.0° C Sprühregen
Di, 23.10. 20:00 9.7° C Sprühregen
Di, 23.10. 14:00 8.2° C bedeckt
Di, 23.10. 8:00 6.2° C bedeckt
Di, 23.10. 2:00 4.7° C fast wolkenlos
Mo, 22.10. 20:00 7.9° C fast wolkenlos
Mo, 22.10. 14:00 8.0° C leichter Regen
Mo, 22.10. 8:00 5.2° C bedeckt
Ortszeit Temperatur Wetter
Mi, 24.10. 2:30 10.2° C Sprühregen
Mi, 24.10. 2:20 10.2° C Sprühregen
Mi, 24.10. 2:10 10.2° C Sprühregen
Mi, 24.10. 2:00 10.0° C Sprühregen
Mi, 24.10. 1:40 10.0° C Sprühregen
Mi, 24.10. 1:30 9.9° C Sprühregen
Mi, 24.10. 1:00 9.9° C Sprühregen
Mi, 24.10. 0:30 9.9° C leichter Regen
Mi, 24.10. 0:00 9.9° C Sprühregen
Di, 23.10. 23:30 9.9° C Sprühregen
Ortszeit Relative Feuchte Sichtweite
Mi, 24.10. 2:00 94% 5.0 km
Di, 23.10. 20:00 91% 4.3 km
Di, 23.10. 14:00 82% 20 km
Di, 23.10. 8:00 78% 40 km
Di, 23.10. 2:00 81% 40 km
Mo, 22.10. 20:00 75% 35 km
Mo, 22.10. 14:00 92% 14 km
Mo, 22.10. 8:00 92% 18 km
Ortszeit Relative Feuchte Sichtweite
Mi, 24.10. 2:30 94% 2.8 km
Mi, 24.10. 2:20 94% -
Mi, 24.10. 2:10 94% -
Mi, 24.10. 2:00 94% 5.0 km
Mi, 24.10. 1:40 93% -
Mi, 24.10. 1:30 94% 3.7 km
Mi, 24.10. 1:00 93% 5.0 km
Mi, 24.10. 0:30 93% 2.4 km
Mi, 24.10. 0:00 92% 7 km
Di, 23.10. 23:30 92% 4.6 km
Ortszeit Niederschlagsmenge Niederschlagsart
Mi, 24.10. 2:00 2 l/m2 in 6 Std. Regen
Di, 23.10. 20:00 0.9 l/m2 in 12 Std. Regen
Di, 23.10. 14:00 0.4 l/m2 in 6 Std. Regen
Di, 23.10. 8:00 0.1 l/m2 in 12 Std. -
Di, 23.10. 2:00 0.0 l/m2 in 6 Std. -
Mo, 22.10. 20:00 2 l/m2 in 12 Std. Regen
Mo, 22.10. 14:00 2 l/m2 in 6 Std. Regen
Mo, 22.10. 8:00 0.0 l/m2 in 12 Std. -
Ortszeit Niederschlagsmenge Niederschlagsart
Mi, 24.10. 2:30 0.3 l/m2 in 1 Std. -
Mi, 24.10. 2:20 keine Meldung -
Mi, 24.10. 2:10 keine Meldung -
Mi, 24.10. 2:00 0.3 l/m2 in 1 Std. Regen
Mi, 24.10. 1:40 keine Meldung -
Mi, 24.10. 1:30 0.2 l/m2 in 1 Std. -
Mi, 24.10. 1:00 0.6 l/m2 in 1 Std. Regen
Mi, 24.10. 0:30 0.3 l/m2 in 1 Std. -
Mi, 24.10. 0:00 0.3 l/m2 in 1 Std. Regen
Di, 23.10. 23:30 0.1 l/m2 in 1 Std. -
Ortszeit Stärke Spitze Richtung
km/h Bft. km/h Grad Sektor
Mi, 24.10. 2:00 25 4 65 270° W
Di, 23.10. 20:00 31 5 52 280° W
Di, 23.10. 14:00 24 4 46 260° W
Di, 23.10. 8:00 18 3 40 250° W
Di, 23.10. 2:00 14 3 22 280° W
Mo, 22.10. 20:00 9 2 26 320° NW
Mo, 22.10. 14:00 19 3 35 350° N
Mo, 22.10. 8:00 2 1 7 60° NO
Ortszeit Stärke Spitze Richtung
km/h Bft. km/h Grad Sektor
Mi, 24.10. 2:30 28 4 48 270° W
Mi, 24.10. 2:20 28 4 - 270° W
Mi, 24.10. 2:10 30 5 - 270° W
Mi, 24.10. 2:00 25 4 54 270° W
Mi, 24.10. 1:40 28 4 - 270° W
Mi, 24.10. 1:30 29 5 54 270° W
Mi, 24.10. 1:00 28 4 50 280° W
Mi, 24.10. 0:30 31 5 48 280° W
Mi, 24.10. 0:00 29 5 54 280° W
Di, 23.10. 23:30 28 4 52 280° W
Ortszeit Untergrenze Bedeckung Gattung
total tief tief mittel hoch
Mi, 24.10. 2:00 180 m 8/8 8/8 - - -
Di, 23.10. 20:00 240 m 8/8 8/8 - - -
Di, 23.10. 14:00 420 m 8/8 8/8 - - -
Di, 23.10. 8:00 600 m 8/8 8/8 - - -
Di, 23.10. 2:00 1020 m 0/8 0/8 - - -
Mo, 22.10. 20:00 1380 m 1/8 1/8 - - -
Mo, 22.10. 14:00 180 m 7/8 7/8 - - -
Mo, 22.10. 8:00 540 m 8/8 8/8 - - -
Ortszeit Bedeckungsgrad in Achtel und Wolkenuntergrenze
Mi, 24.10. 2:30 7(180m) 8(270m)
Mi, 24.10. 2:20 7(180m) 8(270m)
Mi, 24.10. 2:10 8(210m)
Mi, 24.10. 2:00 8(180m)
Mi, 24.10. 1:40 8(180m)
Mi, 24.10. 1:30 7(180m) 8(330m)
Mi, 24.10. 1:00 7(180m) 8(390m)
Mi, 24.10. 0:30 7(210m) 7(420m) 8(540m)
Mi, 24.10. 0:00 7(210m) 7(330m)
Di, 23.10. 23:30 7(210m) 7(330m)
Ortszeit Luftdruck NN (hPa) Tendenz (hPa in 3 Std.)
Mi, 24.10. 2:00 1015 - 1,1
Di, 23.10. 20:00 1017 - 0,5
Di, 23.10. 14:00 1019 - 2,7
Di, 23.10. 8:00 1024 - 2,7
Di, 23.10. 2:00 1031 - 1,6
Mo, 22.10. 20:00 1032 + 1,1
Mo, 22.10. 14:00 1030 + 1,1
Mo, 22.10. 8:00 1028 + 0,5
Ortszeit Luftdruck NN (hPa) Tendenz (hPa in 3 Std.)
Mi, 24.10. 2:30 1015 - 1,1
Mi, 24.10. 2:20 1015 keine Meldung
Mi, 24.10. 2:10 1015 keine Meldung
Mi, 24.10. 2:00 1015 - 1,1
Mi, 24.10. 1:40 1015 keine Meldung
Mi, 24.10. 1:30 1015 - 0,9
Mi, 24.10. 1:00 1016 - 0,4
Mi, 24.10. 0:30 1016 - 0,9
Mi, 24.10. 0:00 1016 - 0,5
Di, 23.10. 23:30 1016 - 1,2
Ortszeit Schneehöhe (cm)
Mi, 24.10. 2:00 0
Di, 23.10. 20:00 0
Di, 23.10. 14:00 0
Di, 23.10. 8:00 0
Di, 23.10. 2:00 0
Mo, 22.10. 20:00 0
Mo, 22.10. 14:00 0
Mo, 22.10. 8:00 0
Ortszeit Schneehöhe (cm)
Mi, 24.10. 2:30 0
Mi, 24.10. 2:20 0
Mi, 24.10. 2:10 0
Mi, 24.10. 2:00 0
Mi, 24.10. 1:40 0
Mi, 24.10. 1:30 0
Mi, 24.10. 1:00 0
Mi, 24.10. 0:30 0
Mi, 24.10. 0:00 0
Di, 23.10. 23:30 0
Link zu dieser Seite / Seite empfehlen

Das Wetter in ...